Terminal Aerodrome Forecast
Issued by NWS

Home | Current Version | Previous Version | Text Only | Print | Product List | Glossary On
Versions: 1 2 3 4 5 6 7 8 9 10 11 12
000
FTPQ31 PGUM 250500
TAFPQ
TAF

PTYA 250538Z 2506/2606 VRB06KT P6SM VCSH SCT016 SCT140=

USA.gov is the U.S. government's official web portal to all federal, state and local government web resources and services.